Time;durP1;ratioP1;P1;durP2;ratioP2;P2;SDS_P1;SDS_P2;PMS_P1;PMS_P2;Temp;Humidity;BMP_temperature;BMP_pressure;BME280_temperature;BME280_humidity;BME280_pressure;Samples;Min_cycle;Max_cycle;Signal;HPM_P1;HPM_P2
2022/03/10 00:00:17;;;;;;;16.53;13.90;;;7.20;1.00;;;;;;2611399;51;20433;-79
2022/03/10 00:02:43;;;;;;;18.43;13.50;;;7.30;1.00;;;;;;2613876;54;20535;-79
2022/03/10 00:05:14;;;;;;;18.50;14.07;;;7.30;1.00;;;;;;2613652;54;20408;-80
2022/03/10 00:07:40;;;;;;;15.30;12.07;;;7.40;1.00;;;;;;2611986;54;20961;-77
2022/03/10 00:10:07;;;;;;;17.93;13.50;;;7.20;1.00;;;;;;2611187;47;20456;-78
2022/03/10 00:12:33;;;;;;;21.17;14.80;;;7.20;1.00;;;;;;2611347;54;20179;-79
2022/03/10 00:14:58;;;;;;;15.73;12.83;;;7.20;1.00;;;;;;2611971;54;20967;-80
2022/03/10 00:17:24;;;;;;;20.50;14.20;;;7.20;1.00;;;;;;2611038;47;20589;-79
2022/03/10 00:19:50;;;;;;;18.00;13.90;;;7.30;1.00;;;;;;2611434;48;20404;-77
2022/03/10 00:22:16;;;;;;;19.20;14.10;;;7.40;1.00;;;;;;2612842;47;20190;-79
2022/03/10 00:24:41;;;;;;;17.10;13.70;;;7.30;1.00;;;;;;2613173;39;20538;-79
2022/03/10 00:27:07;;;;;;;17.60;13.43;;;7.30;1.00;;;;;;2612266;47;20230;-79
2022/03/10 00:29:33;;;;;;;18.73;13.00;;;7.40;1.00;;;;;;2611392;54;20166;-77
2022/03/10 00:31:59;;;;;;;18.63;14.13;;;7.30;1.00;;;;;;2611917;54;20682;-78
2022/03/10 00:34:25;;;;;;;16.70;13.30;;;7.20;1.00;;;;;;2611913;54;20527;-78
2022/03/10 00:36:51;;;;;;;22.03;14.80;;;7.20;1.00;;;;;;2611932;54;20144;-80
2022/03/10 00:39:16;;;;;;;16.53;13.30;;;7.00;1.00;;;;;;2610778;54;20415;-79
2022/03/10 00:41:42;;;;;;;14.93;12.20;;;6.90;1.00;;;;;;2611475;54;20703;-77
2022/03/10 00:44:08;;;;;;;16.80;14.33;;;6.80;1.00;;;;;;2611479;47;20934;-77
2022/03/10 00:46:35;;;;;;;21.30;14.13;;;6.60;1.00;;;;;;2611444;54;20416;-80
2022/03/10 00:49:01;;;;;;;18.73;14.13;;;6.50;1.00;;;;;;2610701;54;20407;-79
2022/03/10 00:51:27;;;;;;;18.00;13.70;;;6.10;1.00;;;;;;2611488;54;20427;-79
2022/03/10 00:53:53;;;;;;;18.07;13.03;;;5.80;1.00;;;;;;2611206;39;20678;-82
2022/03/10 00:56:19;;;;;;;20.47;14.57;;;5.70;1.00;;;;;;2611949;39;20843;-77
2022/03/10 00:58:45;;;;;;;20.67;14.57;;;5.70;1.00;;;;;;2611243;54;20699;-79
2022/03/10 01:01:11;;;;;;;19.90;14.60;;;5.70;1.00;;;;;;2611245;54;20412;-76
2022/03/10 01:03:37;;;;;;;20.30;14.00;;;5.60;1.00;;;;;;2611626;39;20899;-77
2022/03/10 01:06:03;;;;;;;16.23;13.47;;;5.60;1.00;;;;;;2612258;39;20508;-79
2022/03/10 01:08:28;;;;;;;17.43;13.73;;;5.60;1.00;;;;;;2612697;54;20486;-80
2022/03/10 01:10:54;;;;;;;21.17;14.23;;;5.60;1.00;;;;;;2612846;54;21233;-77
2022/03/10 01:13:20;;;;;;;23.90;14.60;;;5.50;1.00;;;;;;2611710;47;20245;-77
2022/03/10 01:15:48;;;;;;;19.20;13.40;;;5.70;1.00;;;;;;2612158;54;20151;-80
2022/03/10 01:18:16;;;;;;;22.23;16.13;;;5.90;1.00;;;;;;2611564;54;20395;-79
2022/03/10 01:20:43;;;;;;;20.23;14.93;;;6.00;1.00;;;;;;2611381;54;20396;-78
2022/03/10 01:23:10;;;;;;;18.67;14.63;;;6.00;1.00;;;;;;2611417;54;21025;-78
2022/03/10 01:25:36;;;;;;;18.63;13.83;;;6.00;1.00;;;;;;2611749;51;20401;-78
2022/03/10 01:28:02;;;;;;;18.33;14.23;;;6.20;1.00;;;;;;2611463;39;20892;-79
2022/03/10 01:30:28;;;;;;;17.40;13.10;;;6.20;1.00;;;;;;2612161;54;20395;-79
2022/03/10 01:32:54;;;;;;;18.77;14.80;;;6.20;1.00;;;;;;2613288;54;20521;-78
2022/03/10 01:35:21;;;;;;;19.13;13.17;;;6.10;1.00;;;;;;2611324;54;21299;-79
2022/03/10 01:37:46;;;;;;;20.40;13.93;;;6.00;1.00;;;;;;2614113;54;20269;-80
2022/03/10 01:40:15;;;;;;;17.30;14.03;;;6.00;1.00;;;;;;2614234;39;20809;-78
2022/03/10 01:42:42;;;;;;;14.97;13.37;;;5.80;1.00;;;;;;2614176;54;20683;-81
2022/03/10 01:45:10;;;;;;;19.30;14.87;;;5.60;1.00;;;;;;2613616;46;20421;-79
2022/03/10 01:47:36;;;;;;;20.60;13.30;;;5.40;1.00;;;;;;2610834;54;20414;-77
2022/03/10 01:50:03;;;;;;;17.47;13.70;;;5.20;1.00;;;;;;2612459;54;20380;-79
2022/03/10 01:52:30;;;;;;;25.63;15.10;;;5.20;1.00;;;;;;2610973;54;20513;-79
2022/03/10 01:54:57;;;;;;;21.30;15.20;;;5.10;1.00;;;;;;2610960;54;20431;-79
2022/03/10 01:57:24;;;;;;;17.67;14.70;;;5.10;1.00;;;;;;2610252;39;20813;-77
2022/03/10 01:59:49;;;;;;;17.07;13.60;;;5.10;1.00;;;;;;2611317;54;20495;-79
2022/03/10 02:02:15;;;;;;;20.33;14.03;;;5.00;1.00;;;;;;2610557;47;20465;-76
2022/03/10 02:04:41;;;;;;;24.40;13.97;;;4.80;1.00;;;;;;2611501;39;20253;-76
2022/03/10 02:12:37;;;;;;;20.57;13.80;;;4.50;1.00;;;;;;2610702;47;20399;-76
2022/03/10 02:17:55;;;;;;;20.20;14.17;;;4.20;1.00;;;;;;2611289;39;20806;-77
2022/03/10 02:20:21;;;;;;;18.37;13.80;;;4.00;1.00;;;;;;2611351;54;20396;-77
2022/03/10 02:22:48;;;;;;;21.37;14.70;;;4.00;1.00;;;;;;2610816;46;20193;-77
2022/03/10 02:25:15;;;;;;;17.13;14.60;;;4.00;1.00;;;;;;2611648;39;20814;-76
2022/03/10 02:27:41;;;;;;;17.87;13.47;;;3.80;1.30;;;;;;2611315;47;20419;-77
2022/03/10 02:30:09;;;;;;;21.23;14.30;;;3.80;2.00;;;;;;2611615;54;20419;-77
2022/03/10 02:32:34;;;;;;;20.20;14.90;;;3.60;2.90;;;;;;2612109;47;20418;-77
2022/03/10 02:35:00;;;;;;;22.80;14.47;;;3.40;5.00;;;;;;2611290;39;20955;-77
2022/03/10 02:37:26;;;;;;;19.63;15.20;;;3.40;5.10;;;;;;2610719;54;20658;-76
2022/03/10 02:39:52;;;;;;;26.53;14.33;;;3.40;5.50;;;;;;2611636;54;20398;-76
2022/03/10 02:42:18;;;;;;;21.67;15.00;;;3.30;5.50;;;;;;2611584;47;20198;-76
2022/03/10 02:44:47;;;;;;;22.37;15.03;;;3.30;5.50;;;;;;2611665;54;21110;-76
2022/03/10 02:47:15;;;;;;;26.10;15.70;;;3.20;6.20;;;;;;2611420;54;20163;-77
2022/03/10 02:49:42;;;;;;;21.33;16.20;;;3.00;7.50;;;;;;2612403;39;21121;-77
2022/03/10 02:52:09;;;;;;;25.27;17.33;;;3.00;9.30;;;;;;2611931;47;20443;-77
2022/03/10 02:54:34;;;;;;;20.30;14.73;;;3.00;9.80;;;;;;2611861;54;20534;-76
2022/03/10 02:57:00;;;;;;;25.47;16.20;;;2.90;10.30;;;;;;2612119;54;20415;-76
2022/03/10 02:59:26;;;;;;;23.83;14.87;;;2.70;11.50;;;;;;2611068;50;20522;-77
2022/03/10 03:01:52;;;;;;;20.20;14.70;;;2.70;12.50;;;;;;2612785;54;20416;-76
2022/03/10 03:04:18;;;;;;;21.17;15.50;;;2.60;13.50;;;;;;2611278;47;20174;-76
2022/03/10 03:06:44;;;;;;;19.17;14.43;;;2.70;14.00;;;;;;2611143;47;20408;-76
2022/03/10 03:09:10;;;;;;;21.87;15.10;;;2.50;15.00;;;;;;2611227;54;20753;-76
2022/03/10 03:11:36;;;;;;;22.53;16.90;;;2.50;15.30;;;;;;2611509;54;20416;-76
2022/03/10 03:14:01;;;;;;;22.17;14.10;;;2.40;16.70;;;;;;2611490;46;20726;-76
2022/03/10 03:16:28;;;;;;;21.73;15.37;;;2.40;17.60;;;;;;2612509;54;20162;-76
2022/03/10 03:18:54;;;;;;;23.30;14.60;;;2.30;17.30;;;;;;2612507;39;20687;-76
2022/03/10 03:21:21;;;;;;;34.97;16.07;;;2.30;17.50;;;;;;2612986;54;20543;-76
2022/03/10 03:23:47;;;;;;;21.43;15.53;;;2.20;18.30;;;;;;2610565;54;20428;-77
2022/03/10 03:26:13;;;;;;;19.10;13.23;;;2.10;19.10;;;;;;2610952;47;20416;-76
2022/03/10 03:28:39;;;;;;;21.00;14.83;;;2.20;18.60;;;;;;2611882;54;20408;-77
2022/03/10 03:31:05;;;;;;;17.17;13.33;;;2.20;18.40;;;;;;2612168;31;20935;-77
2022/03/10 03:33:31;;;;;;;22.83;14.30;;;2.10;19.10;;;;;;2612016;47;20423;-76
2022/03/10 03:35:58;;;;;;;21.37;15.27;;;2.10;19.30;;;;;;2610907;47;20174;-76
2022/03/10 03:38:24;;;;;;;19.27;13.87;;;2.10;21.00;;;;;;2612261;54;20410;-75
2022/03/10 03:40:50;;;;;;;24.30;14.67;;;2.00;21.70;;;;;;2611272;54;20403;-75
2022/03/10 03:43:16;;;;;;;18.67;14.60;;;1.80;22.90;;;;;;2610943;39;21506;-76
2022/03/10 03:45:42;;;;;;;17.57;13.60;;;1.90;23.50;;;;;;2610607;54;20396;-75
2022/03/10 03:48:09;;;;;;;15.47;12.83;;;1.90;23.30;;;;;;2613075;47;20459;-76
2022/03/10 03:50:35;;;;;;;24.50;14.80;;;1.90;23.50;;;;;;2611942;54;20416;-76
2022/03/10 03:53:01;;;;;;;24.07;14.67;;;1.90;24.00;;;;;;2612613;47;20425;-77
2022/03/10 03:55:27;;;;;;;22.30;15.60;;;1.80;24.20;;;;;;2614009;54;20391;-76
2022/03/10 03:57:53;;;;;;;18.37;13.90;;;1.80;24.40;;;;;;2614288;39;20803;-75
2022/03/10 04:00:19;;;;;;;23.27;15.17;;;1.80;24.90;;;;;;2612643;46;20602;-76
2022/03/10 04:02:45;;;;;;;23.43;13.77;;;1.70;25.50;;;;;;2611558;47;20406;-76
2022/03/10 04:05:12;;;;;;;24.33;16.40;;;1.60;26.30;;;;;;2612598;54;20150;-77
2022/03/10 04:07:38;;;;;;;25.50;15.40;;;1.60;27.00;;;;;;2611673;54;20390;-76
2022/03/10 04:10:06;;;;;;;26.10;16.20;;;1.50;28.30;;;;;;2611892;54;20458;-76
2022/03/10 04:12:32;;;;;;;24.10;13.67;;;1.60;29.30;;;;;;2611817;47;20427;-75
2022/03/10 04:14:59;;;;;;;20.30;14.90;;;1.60;30.60;;;;;;2611396;47;20466;-75
2022/03/10 04:17:26;;;;;;;26.53;14.40;;;1.60;30.60;;;;;;2611747;54;20397;-75
2022/03/10 04:19:52;;;;;;;25.43;16.63;;;1.30;34.30;;;;;;2611727;54;20404;-76
2022/03/10 04:22:18;;;;;;;26.77;18.40;;;1.30;36.00;;;;;;2612483;54;20459;-76
2022/03/10 04:24:44;;;;;;;20.20;14.20;;;1.40;38.10;;;;;;2610683;54;20155;-76
2022/03/10 04:27:10;;;;;;;21.77;14.50;;;1.40;37.80;;;;;;2612833;39;20519;-76
2022/03/10 04:29:35;;;;;;;19.30;13.90;;;1.50;37.60;;;;;;2612598;39;20551;-76
2022/03/10 04:32:01;;;;;;;22.23;15.63;;;1.50;38.20;;;;;;2612772;47;20391;-76
2022/03/10 04:34:27;;;;;;;27.77;15.80;;;1.50;37.10;;;;;;2612346;54;20185;-76
2022/03/10 04:36:53;;;;;;;32.87;16.77;;;1.40;36.70;;;;;;2612892;54;20154;-76
2022/03/10 04:39:18;;;;;;;25.63;15.23;;;1.30;40.40;;;;;;2611607;31;20663;-77
2022/03/10 04:41:44;;;;;;;26.20;16.37;;;1.20;40.90;;;;;;2611907;54;20193;-76
2022/03/10 04:44:10;;;;;;;25.47;15.90;;;1.20;40.80;;;;;;2611068;39;20852;-75
2022/03/10 04:46:37;;;;;;;22.83;15.90;;;1.30;41.50;;;;;;2611388;47;20419;-75
2022/03/10 04:49:03;;;;;;;22.63;15.37;;;1.20;42.60;;;;;;2611205;47;20166;-75
2022/03/10 04:51:29;;;;;;;27.90;15.67;;;1.20;42.90;;;;;;2611905;31;21028;-76
2022/03/10 04:53:55;;;;;;;22.40;15.63;;;1.30;43.00;;;;;;2611042;47;20430;-76
2022/03/10 04:56:21;;;;;;;24.80;14.07;;;1.20;44.40;;;;;;2610803;46;20460;-76
2022/03/10 04:58:48;;;;;;;23.60;14.20;;;1.20;44.90;;;;;;2611271;47;20885;-76
2022/03/10 05:01:13;;;;;;;19.70;13.93;;;1.10;47.10;;;;;;2609746;54;20426;-76
2022/03/10 05:03:40;;;;;;;21.10;14.80;;;1.20;48.30;;;;;;2612039;47;21078;-76
2022/03/10 05:06:06;;;;;;;20.57;14.33;;;1.20;47.00;;;;;;2610966;54;20174;-76
2022/03/10 05:08:33;;;;;;;21.47;14.90;;;1.00;48.20;;;;;;2611278;47;21095;-76
2022/03/10 05:10:59;;;;;;;31.37;16.17;;;1.10;49.30;;;;;;2611000;54;20405;-76
2022/03/10 05:13:25;;;;;;;24.47;14.00;;;1.10;48.80;;;;;;2610961;54;20438;-76
2022/03/10 05:15:51;;;;;;;22.97;14.90;;;1.00;50.60;;;;;;2612372;39;20999;-76
2022/03/10 05:18:17;;;;;;;20.80;15.37;;;1.00;51.20;;;;;;2611318;54;20412;-75
2022/03/10 05:20:42;;;;;;;22.60;14.77;;;1.00;52.40;;;;;;2610958;54;20169;-76
2022/03/10 05:23:08;;;;;;;25.77;15.97;;;0.90;54.90;;;;;;2611713;54;20143;-76
2022/03/10 05:25:39;;;;;;;25.27;15.27;;;0.80;57.30;;;;;;2613279;31;20872;-76
2022/03/10 05:28:15;;;;;;;26.77;14.73;;;0.90;57.80;;;;;;2611022;51;20608;-76
2022/03/10 05:30:42;;;;;;;19.20;14.07;;;0.90;57.50;;;;;;2611073;54;20451;-76
2022/03/10 05:33:12;;;;;;;22.90;14.77;;;0.80;58.50;;;;;;2611654;54;20387;-79
2022/03/10 05:35:38;;;;;;;21.97;14.50;;;0.80;59.10;;;;;;2612229;54;20912;-76
2022/03/10 05:38:04;;;;;;;23.03;14.67;;;0.80;58.20;;;;;;2612206;54;20398;-76
2022/03/10 05:40:30;;;;;;;19.23;14.00;;;0.90;55.50;;;;;;2611560;54;20491;-76
2022/03/10 05:42:56;;;;;;;21.53;14.20;;;1.00;53.60;;;;;;2611238;47;20166;-76
2022/03/10 05:45:25;;;;;;;26.83;15.40;;;0.90;54.60;;;;;;2610774;54;20395;-76
2022/03/10 05:47:55;;;;;;;20.37;15.43;;;0.80;56.30;;;;;;2611538;46;20413;-76
2022/03/10 05:50:23;;;;;;;22.17;14.73;;;0.90;55.50;;;;;;2610336;47;20416;-76
2022/03/10 05:52:49;;;;;;;23.33;14.77;;;0.80;56.60;;;;;;2611293;54;20379;-76
2022/03/10 05:55:17;;;;;;;21.03;14.60;;;0.80;56.60;;;;;;2610475;54;20403;-76
2022/03/10 05:57:43;;;;;;;23.87;15.73;;;0.90;56.10;;;;;;2611053;47;20425;-77
2022/03/10 06:00:10;;;;;;;28.10;14.63;;;1.00;55.90;;;;;;2610704;47;20422;-76
2022/03/10 06:02:39;;;;;;;22.97;15.43;;;0.90;55.80;;;;;;2612590;54;20378;-76
2022/03/10 06:05:05;;;;;;;27.97;15.47;;;1.00;56.70;;;;;;2612088;39;21306;-77
2022/03/10 06:07:31;;;;;;;20.80;13.87;;;1.10;55.10;;;;;;2612331;54;20426;-76
2022/03/10 06:09:57;;;;;;;23.37;15.57;;;1.00;54.50;;;;;;2612051;47;20439;-76
2022/03/10 06:12:26;;;;;;;23.73;16.73;;;0.90;55.30;;;;;;2611260;54;20422;-76
2022/03/10 06:14:59;;;;;;;24.30;16.07;;;1.00;53.80;;;;;;2611164;47;20174;-77
2022/03/10 06:17:26;;;;;;;22.13;14.40;;;1.00;54.00;;;;;;2612790;54;20427;-76
2022/03/10 06:19:52;;;;;;;26.37;15.30;;;1.10;53.60;;;;;;2611928;54;20387;-76
2022/03/10 06:22:19;;;;;;;21.37;13.63;;;1.10;53.10;;;;;;2611531;47;20386;-78
2022/03/10 06:24:46;;;;;;;29.00;15.90;;;1.10;54.30;;;;;;2611825;54;20147;-78
2022/03/10 06:27:18;;;;;;;24.10;14.30;;;1.00;55.30;;;;;;2613102;39;20956;-78
2022/03/10 06:29:44;;;;;;;23.20;15.67;;;1.10;55.90;;;;;;2612728;39;20852;-77
2022/03/10 06:32:12;;;;;;;24.63;16.40;;;1.10;55.70;;;;;;2613000;54;20440;-78
2022/03/10 06:34:39;;;;;;;20.20;14.20;;;1.20;56.20;;;;;;2611849;54;20414;-78
2022/03/10 06:37:05;;;;;;;24.30;16.10;;;1.30;54.70;;;;;;2613268;54;20526;-78
2022/03/10 06:39:32;;;;;;;26.03;14.57;;;1.40;53.90;;;;;;2613034;54;20450;-78
2022/03/10 06:41:58;;;;;;;29.07;15.67;;;1.40;52.60;;;;;;2612358;47;20407;-78
2022/03/10 06:44:24;;;;;;;23.20;15.00;;;1.50;52.20;;;;;;2612717;54;20453;-77
2022/03/10 06:46:51;;;;;;;24.50;17.30;;;1.80;52.90;;;;;;2612842;46;20411;-79
2022/03/10 06:49:17;;;;;;;25.27;15.00;;;2.10;48.30;;;;;;2613021;54;20450;-77
2022/03/10 06:51:43;;;;;;;21.57;15.90;;;2.60;43.90;;;;;;2612884;54;20471;-76
2022/03/10 06:54:09;;;;;;;25.53;16.13;;;3.10;35.80;;;;;;2612780;54;20243;-77
2022/03/10 06:56:34;;;;;;;20.67;15.20;;;3.50;28.10;;;;;;2613242;54;20987;-77
2022/03/10 06:59:00;;;;;;;24.57;14.60;;;3.80;23.30;;;;;;2613075;47;20431;-77
2022/03/10 07:01:26;;;;;;;27.47;15.90;;;4.20;19.50;;;;;;2612220;54;20154;-78
2022/03/10 07:03:55;;;;;;;20.23;13.93;;;4.60;15.60;;;;;;2613333;39;20937;-77
2022/03/10 07:06:21;;;;;;;17.17;13.93;;;4.90;8.10;;;;;;2611253;54;20411;-77
2022/03/10 07:08:47;;;;;;;17.63;12.80;;;5.50;1.20;;;;;;2612372;54;20443;-76
2022/03/10 07:11:13;;;;;;;18.30;13.10;;;6.20;1.00;;;;;;2610717;47;20177;-77
2022/03/10 07:13:38;;;;;;;23.70;16.50;;;7.10;1.00;;;;;;2611872;54;20155;-77
2022/03/10 07:16:05;;;;;;;17.93;13.43;;;7.80;1.00;;;;;;2612524;54;20259;-76
2022/03/10 07:18:40;;;;;;;23.43;15.63;;;8.70;1.00;;;;;;2612479;47;20200;-77
2022/03/10 07:21:07;;;;;;;16.60;13.13;;;9.60;1.00;;;;;;2612874;39;21025;-78
2022/03/10 07:23:33;;;;;;;21.47;13.60;;;10.20;1.00;;;;;;2612061;54;20414;-77
2022/03/10 07:25:59;;;;;;;17.70;13.20;;;10.10;1.00;;;;;;2612316;46;22996;-77
2022/03/10 07:28:27;;;;;;;17.80;15.10;;;10.30;1.00;;;;;;2612423;54;20391;-77
2022/03/10 07:30:53;;;;;;;18.77;14.13;;;10.50;1.00;;;;;;2613236;47;20559;-78
2022/03/10 07:33:19;;;;;;;26.60;15.23;;;10.70;1.00;;;;;;2611489;54;20400;-77
2022/03/10 07:35:45;;;;;;;14.93;13.33;;;11.10;1.00;;;;;;2613902;46;20661;-77
2022/03/10 07:38:11;;;;;;;20.87;14.20;;;11.50;1.00;;;;;;2612818;46;20438;-77
2022/03/10 07:40:37;;;;;;;14.90;12.57;;;11.50;1.00;;;;;;2613115;47;20258;-76
2022/03/10 07:43:05;;;;;;;18.13;13.13;;;11.50;1.00;;;;;;2610155;51;20434;-76
2022/03/10 07:45:32;;;;;;;19.63;14.17;;;11.90;1.00;;;;;;2611661;47;20416;-75
2022/03/10 07:47:58;;;;;;;16.77;14.00;;;12.30;1.00;;;;;;2612511;47;20455;-77
2022/03/10 07:50:24;;;;;;;16.90;13.67;;;12.40;1.00;;;;;;2614016;54;20388;-77
2022/03/10 07:52:50;;;;;;;25.00;14.70;;;12.80;1.00;;;;;;2613290;54;20158;-76
2022/03/10 07:55:16;;;;;;;19.07;13.87;;;12.90;1.00;;;;;;2613548;39;20822;-76
2022/03/10 07:57:42;;;;;;;20.17;14.03;;;13.10;1.00;;;;;;2612918;54;20439;-77
2022/03/10 08:00:08;;;;;;;19.83;15.23;;;13.20;1.00;;;;;;2612270;47;20171;-78
2022/03/10 08:02:35;;;;;;;20.83;16.03;;;13.30;1.00;;;;;;2613386;39;20563;-77
2022/03/10 08:05:03;;;;;;;15.47;13.97;;;13.40;1.00;;;;;;2614210;54;20966;-77
2022/03/10 08:07:32;;;;;;;18.67;14.50;;;13.40;1.00;;;;;;2613055;47;20404;-77
2022/03/10 08:10:04;;;;;;;17.77;15.20;;;13.20;1.00;;;;;;2612236;47;20452;-76
2022/03/10 08:12:33;;;;;;;21.53;14.80;;;13.10;1.00;;;;;;2613116;47;20415;-76
2022/03/10 08:15:23;;;;;;;18.57;15.37;;;12.90;1.00;;;;;;2612992;47;20415;-76
2022/03/10 08:17:49;;;;;;;20.43;14.47;;;12.70;1.00;;;;;;2612852;46;20473;-76
2022/03/10 08:20:16;;;;;;;19.90;15.90;;;13.00;1.00;;;;;;2613389;54;20407;-77
2022/03/10 08:22:42;;;;;;;16.50;14.03;;;13.40;1.00;;;;;;2613143;54;20245;-76
2022/03/10 08:25:08;;;;;;;20.63;14.77;;;13.20;1.00;;;;;;2614126;47;20990;-77
2022/03/10 08:27:35;;;;;;;22.10;16.13;;;13.60;1.00;;;;;;2613615;47;20853;-76
2022/03/10 08:30:01;;;;;;;19.97;17.83;;;14.00;1.00;;;;;;2613969;54;20439;-77
2022/03/10 08:32:27;;;;;;;19.10;16.20;;;14.00;1.00;;;;;;2612895;47;21043;-77
2022/03/10 08:34:53;;;;;;;33.73;16.63;;;13.70;1.00;;;;;;2614720;54;20404;-77
2022/03/10 08:37:19;;;;;;;40.20;18.43;;;13.90;1.00;;;;;;2614232;46;20166;-77
2022/03/10 08:39:45;;;;;;;17.90;15.40;;;14.10;1.00;;;;;;2613037;54;20258;-76
2022/03/10 08:42:11;;;;;;;20.77;15.40;;;13.80;1.00;;;;;;2613788;47;20173;-78
2022/03/10 08:44:37;;;;;;;20.33;16.43;;;14.10;1.00;;;;;;2614093;54;20514;-77
2022/03/10 08:47:04;;;;;;;31.43;18.00;;;14.10;1.00;;;;;;2613586;54;20242;-76
2022/03/10 08:49:30;;;;;;;35.53;19.53;;;14.10;1.00;;;;;;2613599;54;20411;-77
2022/03/10 08:51:56;;;;;;;20.47;17.80;;;14.50;1.00;;;;;;2614228;54;20407;-76
2022/03/10 08:54:21;;;;;;;23.60;17.30;;;14.50;1.00;;;;;;2612968;54;20158;-77
2022/03/10 08:56:47;;;;;;;19.93;17.53;;;14.60;1.00;;;;;;2613529;47;20209;-76
2022/03/10 08:59:13;;;;;;;26.30;20.10;;;14.90;1.00;;;;;;2614727;47;22243;-77
2022/03/10 09:01:40;;;;;;;22.97;17.30;;;14.80;1.00;;;;;;2613393;47;20518;-77
2022/03/10 09:04:07;;;;;;;22.73;18.93;;;14.90;1.00;;;;;;2614859;54;20154;-77
2022/03/10 09:06:33;;;;;;;24.00;18.57;;;15.20;1.00;;;;;;2615078;47;20530;-76
2022/03/10 09:08:59;;;;;;;24.37;19.57;;;15.90;1.00;;;;;;2614466;47;21082;-77
2022/03/10 09:11:25;;;;;;;25.90;19.23;;;16.20;1.00;;;;;;2614144;54;20462;-77
2022/03/10 09:13:50;;;;;;;24.40;19.40;;;16.20;1.00;;;;;;2613256;46;20173;-76
2022/03/10 09:16:18;;;;;;;22.50;20.13;;;16.30;1.00;;;;;;2614208;47;20186;-77
2022/03/10 09:18:48;;;;;;;23.70;19.90;;;16.30;1.00;;;;;;2615334;46;20412;-76
2022/03/10 09:21:15;;;;;;;25.10;21.50;;;16.60;1.00;;;;;;2613848;47;20419;-77
2022/03/10 09:23:41;;;;;;;24.07;21.47;;;17.30;1.00;;;;;;2615463;47;20990;-76
2022/03/10 09:26:07;;;;;;;25.90;20.33;;;17.70;1.00;;;;;;2614490;47;20441;-76
2022/03/10 09:28:33;;;;;;;27.40;23.60;;;17.80;1.00;;;;;;2615860;54;20471;-76
2022/03/10 09:30:59;;;;;;;27.67;21.70;;;18.00;1.00;;;;;;2616502;54;20409;-76
2022/03/10 09:33:25;;;;;;;28.63;22.40;;;17.90;1.00;;;;;;2615180;46;20573;-76
2022/03/10 09:35:52;;;;;;;26.70;23.37;;;18.20;1.00;;;;;;2613886;54;20442;-77
2022/03/10 09:38:19;;;;;;;27.97;24.20;;;17.90;1.00;;;;;;2614820;54;20504;-74
2022/03/10 09:40:46;;;;;;;23.23;20.63;;;17.20;1.00;;;;;;2614350;47;20404;-76
2022/03/10 09:43:12;;;;;;;25.53;22.70;;;17.10;1.00;;;;;;2617105;47;20480;-77
2022/03/10 09:45:39;;;;;;;26.07;23.07;;;17.70;1.00;;;;;;2615196;47;20450;-77
2022/03/10 09:48:05;;;;;;;25.10;22.00;;;18.00;1.00;;;;;;2616844;47;20435;-76
2022/03/10 09:50:31;;;;;;;27.13;23.70;;;17.80;1.00;;;;;;2616234;51;20439;-76
2022/03/10 09:52:59;;;;;;;33.00;23.33;;;17.60;1.00;;;;;;2615878;54;20426;-77
2022/03/10 09:55:25;;;;;;;25.90;22.37;;;17.10;1.00;;;;;;2618340;39;20835;-78
2022/03/10 09:57:53;;;;;;;27.73;22.70;;;17.40;1.00;;;;;;2614870;47;20515;-78
2022/03/10 10:00:18;;;;;;;27.50;24.50;;;17.40;1.00;;;;;;2615212;46;20189;-76
2022/03/10 10:02:45;;;;;;;27.40;22.27;;;17.40;1.00;;;;;;2614336;54;20491;-77
2022/03/10 10:05:20;;;;;;;25.17;22.47;;;17.20;1.00;;;;;;2615278;51;20192;-76
2022/03/10 10:08:17;;;;;;;28.77;23.50;;;17.20;1.00;;;;;;2615764;54;20449;-76
2022/03/10 10:10:49;;;;;;;27.83;23.60;;;17.20;1.00;;;;;;2614832;47;20455;-77
2022/03/10 10:13:27;;;;;;;25.73;22.10;;;17.60;1.00;;;;;;2614845;47;20442;-78
2022/03/10 10:15:56;;;;;;;29.60;22.00;;;17.70;1.00;;;;;;2615342;54;20418;-76
2022/03/10 10:18:22;;;;;;;28.20;22.87;;;17.90;1.00;;;;;;2615449;46;20471;-76
2022/03/10 10:20:50;;;;;;;29.63;22.13;;;18.30;1.00;;;;;;2615086;46;20518;-76
2022/03/10 10:23:25;;;;;;;26.43;22.30;;;18.10;1.00;;;;;;2615335;47;20242;-76
2022/03/10 10:25:53;;;;;;;28.87;24.07;;;17.70;1.00;;;;;;2615784;39;20808;-76
2022/03/10 10:28:27;;;;;;;30.60;25.63;;;17.70;1.00;;;;;;2614876;47;20454;-75
2022/03/10 10:31:05;;;;;;;24.03;21.57;;;17.40;1.00;;;;;;2615009;47;20477;-76
2022/03/10 10:33:33;;;;;;;27.10;22.93;;;17.50;1.00;;;;;;2615110;47;20412;-77
2022/03/10 10:36:16;;;;;;;26.47;23.63;;;17.80;1.00;;;;;;2615121;54;20451;-76
2022/03/10 10:38:44;;;;;;;26.17;23.37;;;18.10;1.00;;;;;;2616783;39;20900;-76
2022/03/10 10:41:30;;;;;;;28.17;24.73;;;18.70;1.00;;;;;;2615904;46;20418;-76
2022/03/10 10:44:05;;;;;;;27.17;22.97;;;18.40;1.00;;;;;;2615299;46;20436;-77
2022/03/10 10:46:33;;;;;;;30.37;23.47;;;18.10;1.00;;;;;;2617335;39;21403;-75
2022/03/10 10:49:08;;;;;;;23.77;21.17;;;18.10;1.00;;;;;;2615994;46;20439;-75
2022/03/10 10:51:39;;;;;;;25.87;23.20;;;18.30;1.00;;;;;;2616255;47;21353;-76
2022/03/10 10:54:09;;;;;;;29.03;22.57;;;18.70;1.00;;;;;;2617513;54;20498;-77
2022/03/10 10:56:44;;;;;;;28.83;22.43;;;18.20;1.00;;;;;;2616319;54;20411;-78
2022/03/10 10:59:30;;;;;;;29.63;23.67;;;18.20;1.00;;;;;;2614662;39;20814;-76
2022/03/10 11:02:17;;;;;;;29.53;23.30;;;18.30;1.00;;;;;;2615810;39;20803;-76
2022/03/10 11:04:48;;;;;;;25.10;22.17;;;18.30;1.00;;;;;;2616513;54;20404;-76
2022/03/10 11:07:15;;;;;;;25.77;23.07;;;20.30;1.00;;;;;;2616251;47;20499;-77
2022/03/10 11:09:44;;;;;;;28.13;20.70;;;18.70;1.00;;;;;;2616757;46;20543;-76
2022/03/10 11:12:15;;;;;;;29.67;24.30;;;18.80;1.00;;;;;;2617074;46;20416;-77
2022/03/10 11:14:42;;;;;;;25.90;22.00;;;18.50;1.00;;;;;;2617339;47;20423;-76
2022/03/10 11:17:08;;;;;;;26.17;23.37;;;18.60;1.00;;;;;;2616543;47;20949;-75
2022/03/10 11:19:44;;;;;;;24.90;22.23;;;18.90;1.00;;;;;;2615625;47;20426;-76
2022/03/10 11:22:45;;;;;;;26.17;23.33;;;19.30;1.00;;;;;;2615977;54;20472;-76
2022/03/10 11:25:28;;;;;;;24.43;21.53;;;19.30;1.00;;;;;;2615740;47;20418;-75
2022/03/10 11:28:11;;;;;;;26.43;23.63;;;18.90;1.00;;;;;;2615800;47;20427;-75
2022/03/10 11:30:37;;;;;;;24.67;22.00;;;18.90;1.00;;;;;;2615291;47;20927;-76
2022/03/10 11:33:09;;;;;;;22.83;20.53;;;19.00;1.00;;;;;;2615933;47;20434;-77
2022/03/10 11:35:40;;;;;;;23.50;20.97;;;18.90;1.00;;;;;;2615297;54;20406;-76
2022/03/10 11:38:07;;;;;;;24.83;22.40;;;19.10;1.00;;;;;;2614850;46;20428;-76
2022/03/10 11:40:56;;;;;;;25.13;22.63;;;19.50;1.00;;;;;;2615380;39;20868;-76
2022/03/10 11:43:35;;;;;;;23.93;21.50;;;19.70;1.00;;;;;;2615313;54;20425;-76
2022/03/10 11:46:18;;;;;;;25.00;22.43;;;19.60;1.00;;;;;;2615878;54;20537;-76
2022/03/10 11:48:59;;;;;;;21.47;19.47;;;19.60;1.00;;;;;;2615225;47;20429;-76
2022/03/10 11:52:16;;;;;;;23.40;21.00;;;19.30;1.00;;;;;;2615166;47;20449;-76
2022/03/10 11:55:08;;;;;;;30.70;20.97;;;19.00;1.00;;;;;;2614329;46;20431;-76
2022/03/10 11:57:53;;;;;;;23.20;20.80;;;19.10;1.00;;;;;;2614497;39;20996;-77
2022/03/10 12:00:44;;;;;;;22.00;19.90;;;19.20;1.00;;;;;;2614155;54;20440;-76
2022/03/10 12:03:11;;;;;;;22.03;19.93;;;18.90;1.00;;;;;;2614498;46;20920;-77
2022/03/10 12:05:53;;;;;;;22.63;20.37;;;19.00;1.00;;;;;;2613997;47;20435;-77
2022/03/10 12:08:20;;;;;;;21.17;18.90;;;19.80;1.00;;;;;;2613901;47;20432;-76
2022/03/10 12:10:49;;;;;;;22.77;20.27;;;19.80;1.00;;;;;;2613368;54;20491;-76
2022/03/10 12:13:27;;;;;;;25.03;21.03;;;19.00;1.00;;;;;;2613198;47;20514;-76
2022/03/10 12:15:53;;;;;;;22.37;19.93;;;19.40;1.00;;;;;;2613332;54;20411;-78
2022/03/10 12:18:39;;;;;;;22.03;19.73;;;19.60;1.00;;;;;;2611725;39;20850;-77
2022/03/10 12:21:25;;;;;;;20.07;18.07;;;19.80;1.00;;;;;;2611932;54;22410;-78
2022/03/10 12:23:52;;;;;;;21.70;19.50;;;19.90;1.00;;;;;;2614153;54;20531;-76
2022/03/10 12:26:39;;;;;;;20.57;18.37;;;19.40;1.00;;;;;;2613676;47;20419;-76
2022/03/10 12:29:05;;;;;;;21.27;19.20;;;18.80;1.00;;;;;;2613893;47;20432;-78
2022/03/10 12:31:35;;;;;;;21.00;18.87;;;19.10;1.00;;;;;;2614730;47;20462;-77
2022/03/10 12:34:12;;;;;;;20.83;19.00;;;19.70;1.00;;;;;;2614502;54;20144;-76
2022/03/10 12:36:39;;;;;;;19.53;17.83;;;19.70;1.00;;;;;;2615290;39;20869;-77
2022/03/10 12:39:17;;;;;;;19.70;17.60;;;20.20;1.00;;;;;;2614781;47;20942;-76
2022/03/10 12:41:48;;;;;;;18.43;16.50;;;20.50;1.00;;;;;;2614336;54;20410;-76
2022/03/10 12:44:18;;;;;;;19.20;17.27;;;19.90;1.00;;;;;;2614889;54;20441;-76
2022/03/10 12:46:44;;;;;;;18.70;16.93;;;20.30;1.00;;;;;;2614951;47;20952;-76
2022/03/10 12:49:37;;;;;;;16.03;14.47;;;20.40;1.00;;;;;;2614344;47;20540;-76
2022/03/10 12:52:13;;;;;;;16.67;15.07;;;20.20;1.00;;;;;;2615048;47;20472;-76